Gary City, Texas
Current Conditions -  °F | °C
As of 6:35 PM on Saturday 25 Oct 2014 (Local Time) from KASL Reporting Station
Clear Clear  
Wind Chill: 77°   Ceiling: Unl
Heat Index: 78°   Visibility: 10mi
Dew Point: 68°   Wind: 0mph
Humidity: 74%   Direction: NA
Pressure: 30.09"   Gusts: NA
Location:  32.0166°N, 94.2581°W
Report Text: KASL 252335Z AUTO 00000KT 10SM CLR 25/20 A3009 RMK AO1 T02490199
Loading
Personal Weather Stations






























Interactive Weather Map
Tropical Storm Tracking
New forecast layout! Learn more

10-Day Weather Forecast

Advertisements
Track Severe Weather on mobile